Youngstown, NY (14174)

1:25 PM EDT on July 26, 2016 (GMT -0400)
the original Riverbend Farm | | Change Station

Elev 315 ft 43.21 °N, 79.06 °W | Updated 14 minutes ago

Scattered Clouds
Scattered Clouds
81.0 °F
Feels Like 84 °F
N
1.0
Wind Variable Wind from West
Gusts 5.0 mph

Today
High -- | Low -- °F
--% Chance of Precip.
Yesterday
High -- | Low -- °F
Precip. -- in
Pressure 30.00 in
Visibility 10.0 miles
Clouds Scattered Clouds 3500 ft
Heat Index 84 °F
Dew Point 69 °F
Humidity 66%
Rainfall 0.00 in
Snow Depth Not available.
6:00 AM 8:44 PM
Waning Gibbous, 53% visible
METAR KIAG 261653Z 32008G14KT 10SM SCT035 27/15 A3001 RMK AO2 SLP158 T02720150
Pressure 30.00 in
Visibility 10.0 miles
Clouds Scattered Clouds 3500 ft
Heat Index 84 °F
Dew Point 69 °F
Humidity 66%
Rainfall 0.00 in
Snow Depth Not available.
6:00 AM 8:44 PM
Waning Gibbous, 53% visible
METAR KIAG 261653Z 32008G14KT 10SM SCT035 27/15 A3001 RMK AO2 SLP158 T02720150

10-Day Weather Forecast

Almanac

Astronomy

Jul. 26, 2016 Rise Set
Actual Time
Civil Twilight
Nautical Twilight
Astronomical Twilight
Moon
Length of Visible Light
Length of Day
Tomorrow will be .
, % of the Moon is Illuminated

Today's Extremes

State Highs State Lows

Community

WunderPhotos

Upload Photos

1,927,640 photos uploaded!

WunderBlog® & News

Nearby

Air Quality

  Air Quality AQ Index Pollutant
Not available.

Snow Depth

Station Depth Elevation

Earthquake Activity

City Distance Mag. Time & Date
Minimum magnitude displayed is 2.5.

Coastal Water Temperatures

Place Temperature

Stations

Nearby Weather Stations

Station Location Temp. Windchill Dew Point Humidity Wind Precip. Elev Updated Type
                   

Watches & Warnings

There are currently no watches in effect.